Terminal Aerodrome Forecast
Issued by NWS Cleveland, OH

Home | Current Version | Previous Version | Text Only | Print | Product List | Glossary On
Versions: 1 2 3 4 5 6 7 8 9 10 11 12 13 14 15 16 17 18 19 20 21 22 23 24 25 26 27 28 29 30 31 32 33 34
000
FTUS41 KCLE 021154 AAA
TAFCLE
TAF AMD
KCLE 021154Z 0212/0318 04011KT P6SM BKN019
      TEMPO 0212/0216 SCT020
     FM021600 03014KT P6SM SCT030
      TEMPO 0216/0220 BKN030
     FM022000 03014G20KT P6SM SCT030
     FM030200 06006KT P6SM SCT250=

USA.gov is the U.S. government's official web portal to all federal, state and local government web resources and services.